sensor_id;sensor_type;location;lat;lon;timestamp;pressure;altitude;pressure_sealevel;temperature
69545;BMP180;56766;52.260;20.746;2023-07-13T00:02:10;100041.80;;;17.28
69545;BMP180;56766;52.260;20.746;2023-07-13T00:04:37;100035.80;;;17.20
69545;BMP180;56766;52.260;20.746;2023-07-13T00:07:04;100034.40;;;17.20
69545;BMP180;56766;52.260;20.746;2023-07-13T00:09:32;100033.60;;;17.20
69545;BMP180;56766;52.260;20.746;2023-07-13T00:12:02;100036.20;;;17.20
69545;BMP180;56766;52.260;20.746;2023-07-13T00:14:29;100037.20;;;17.10
69545;BMP180;56766;52.260;20.746;2023-07-13T00:16:56;100040.00;;;17.02
69545;BMP180;56766;52.260;20.746;2023-07-13T00:19:23;100040.80;;;17.00
69545;BMP180;56766;52.260;20.746;2023-07-13T00:21:50;100041.80;;;17.00
69545;BMP180;56766;52.260;20.746;2023-07-13T00:24:18;100034.80;;;17.00
69545;BMP180;56766;52.260;20.746;2023-07-13T00:26:50;100028.40;;;17.00
69545;BMP180;56766;52.260;20.746;2023-07-13T00:29:17;100028.00;;;17.00
69545;BMP180;56766;52.260;20.746;2023-07-13T00:31:44;100025.00;;;17.00
69545;BMP180;56766;52.260;20.746;2023-07-13T00:34:11;100024.00;;;17.00
69545;BMP180;56766;52.260;20.746;2023-07-13T00:36:39;100026.60;;;17.00
69545;BMP180;56766;52.260;20.746;2023-07-13T00:39:08;100021.20;;;17.00
69545;BMP180;56766;52.260;20.746;2023-07-13T00:41:35;100025.00;;;16.92
69545;BMP180;56766;52.260;20.746;2023-07-13T00:44:04;100020.00;;;16.90
69545;BMP180;56766;52.260;20.746;2023-07-13T00:46:34;100017.00;;;16.90
69545;BMP180;56766;52.260;20.746;2023-07-13T00:49:16;100011.60;;;16.90
69545;BMP180;56766;52.260;20.746;2023-07-13T00:52:14;100018.00;;;16.92
69545;BMP180;56766;52.260;20.746;2023-07-13T00:54:46;100018.00;;;16.94
69545;BMP180;56766;52.260;20.746;2023-07-13T00:57:18;100021.40;;;16.98
69545;BMP180;56766;52.260;20.746;2023-07-13T00:59:55;100018.20;;;16.94
69545;BMP180;56766;52.260;20.746;2023-07-13T01:02:24;100023.00;;;16.94
69545;BMP180;56766;52.260;20.746;2023-07-13T01:04:51;100028.60;;;16.92
69545;BMP180;56766;52.260;20.746;2023-07-13T01:07:18;100026.00;;;16.90
69545;BMP180;56766;52.260;20.746;2023-07-13T01:09:45;100024.20;;;16.90
69545;BMP180;56766;52.260;20.746;2023-07-13T01:12:12;100021.20;;;16.90
69545;BMP180;56766;52.260;20.746;2023-07-13T01:14:40;100017.00;;;16.90
69545;BMP180;56766;52.260;20.746;2023-07-13T01:17:10;100018.60;;;16.90
69545;BMP180;56766;52.260;20.746;2023-07-13T01:19:44;100015.80;;;16.90
69545;BMP180;56766;52.260;20.746;2023-07-13T01:22:16;100016.00;;;16.90
69545;BMP180;56766;52.260;20.746;2023-07-13T01:24:47;100015.00;;;16.90
69545;BMP180;56766;52.260;20.746;2023-07-13T01:27:19;100018.00;;;16.90
69545;BMP180;56766;52.260;20.746;2023-07-13T01:29:46;100019.20;;;16.86
69545;BMP180;56766;52.260;20.746;2023-07-13T01:32:20;100022.40;;;16.84
69545;BMP180;56766;52.260;20.746;2023-07-13T01:34:52;100028.60;;;16.80
69545;BMP180;56766;52.260;20.746;2023-07-13T01:37:22;100037.60;;;16.80
69545;BMP180;56766;52.260;20.746;2023-07-13T01:39:49;100050.20;;;16.80
69545;BMP180;56766;52.260;20.746;2023-07-13T01:42:16;100055.60;;;16.80
69545;BMP180;56766;52.260;20.746;2023-07-13T01:44:42;100045.80;;;16.80
69545;BMP180;56766;52.260;20.746;2023-07-13T01:47:10;100043.20;;;16.80
69545;BMP180;56766;52.260;20.746;2023-07-13T01:49:37;100046.40;;;16.80
69545;BMP180;56766;52.260;20.746;2023-07-13T01:52:05;100039.60;;;16.80
69545;BMP180;56766;52.260;20.746;2023-07-13T01:54:31;100039.20;;;16.80
69545;BMP180;56766;52.260;20.746;2023-07-13T01:57:00;100047.20;;;16.80
69545;BMP180;56766;52.260;20.746;2023-07-13T01:59:26;100041.60;;;16.80
69545;BMP180;56766;52.260;20.746;2023-07-13T02:01:53;100045.80;;;16.80
69545;BMP180;56766;52.260;20.746;2023-07-13T02:04:20;100042.60;;;16.80
69545;BMP180;56766;52.260;20.746;2023-07-13T02:06:47;100035.60;;;16.70
69545;BMP180;56766;52.260;20.746;2023-07-13T02:09:13;100036.80;;;16.70
69545;BMP180;56766;52.260;20.746;2023-07-13T02:11:40;100043.00;;;16.70
69545;BMP180;56766;52.260;20.746;2023-07-13T02:14:06;100044.20;;;16.70
69545;BMP180;56766;52.260;20.746;2023-07-13T02:16:33;100039.20;;;16.70
69545;BMP180;56766;52.260;20.746;2023-07-13T02:19:00;100039.00;;;16.70
69545;BMP180;56766;52.260;20.746;2023-07-13T02:21:26;100036.20;;;16.62
69545;BMP180;56766;52.260;20.746;2023-07-13T02:23:53;100038.40;;;16.60
69545;BMP180;56766;52.260;20.746;2023-07-13T02:26:21;100038.00;;;16.50
69545;BMP180;56766;52.260;20.746;2023-07-13T02:28:47;100040.80;;;16.50
69545;BMP180;56766;52.260;20.746;2023-07-13T02:31:15;100042.20;;;16.50
69545;BMP180;56766;52.260;20.746;2023-07-13T02:33:43;100044.40;;;16.50
69545;BMP180;56766;52.260;20.746;2023-07-13T02:36:11;100048.20;;;16.52
69545;BMP180;56766;52.260;20.746;2023-07-13T02:38:38;100050.40;;;16.60
69545;BMP180;56766;52.260;20.746;2023-07-13T02:41:07;100048.00;;;16.60
69545;BMP180;56766;52.260;20.746;2023-07-13T02:43:37;100050.80;;;16.60
69545;BMP180;56766;52.260;20.746;2023-07-13T02:46:04;100048.20;;;16.60
69545;BMP180;56766;52.260;20.746;2023-07-13T02:48:35;100047.80;;;16.68
69545;BMP180;56766;52.260;20.746;2023-07-13T02:51:03;100043.20;;;16.70
69545;BMP180;56766;52.260;20.746;2023-07-13T02:53:29;100038.80;;;16.70
69545;BMP180;56766;52.260;20.746;2023-07-13T02:55:56;100041.40;;;16.70
69545;BMP180;56766;52.260;20.746;2023-07-13T02:58:23;100047.40;;;16.74
69545;BMP180;56766;52.260;20.746;2023-07-13T03:00:50;100044.80;;;16.76
69545;BMP180;56766;52.260;20.746;2023-07-13T03:03:17;100041.00;;;16.78
69545;BMP180;56766;52.260;20.746;2023-07-13T03:05:45;100037.40;;;16.76
69545;BMP180;56766;52.260;20.746;2023-07-13T03:08:17;100042.60;;;16.74
69545;BMP180;56766;52.260;20.746;2023-07-13T03:10:44;100039.40;;;16.70
69545;BMP180;56766;52.260;20.746;2023-07-13T03:13:11;100037.80;;;16.70
69545;BMP180;56766;52.260;20.746;2023-07-13T03:15:38;100036.80;;;16.70
69545;BMP180;56766;52.260;20.746;2023-07-13T03:18:04;100037.00;;;16.70
69545;BMP180;56766;52.260;20.746;2023-07-13T03:20:34;100033.80;;;16.70
69545;BMP180;56766;52.260;20.746;2023-07-13T03:23:00;100034.00;;;16.70
69545;BMP180;56766;52.260;20.746;2023-07-13T03:25:27;100033.40;;;16.80
69545;BMP180;56766;52.260;20.746;2023-07-13T03:27:53;100032.20;;;16.82
69545;BMP180;56766;52.260;20.746;2023-07-13T03:30:20;100025.60;;;16.90
69545;BMP180;56766;52.260;20.746;2023-07-13T03:32:46;100025.20;;;17.10
69545;BMP180;56766;52.260;20.746;2023-07-13T03:35:14;100020.80;;;17.40
69545;BMP180;56766;52.260;20.746;2023-07-13T03:37:40;100019.80;;;17.60
69545;BMP180;56766;52.260;20.746;2023-07-13T03:40:10;100023.60;;;17.82
69545;BMP180;56766;52.260;20.746;2023-07-13T03:42:36;100020.20;;;18.22
69545;BMP180;56766;52.260;20.746;2023-07-13T03:45:04;100026.40;;;18.74
69545;BMP180;56766;52.260;20.746;2023-07-13T03:47:30;100030.60;;;19.10
69545;BMP180;56766;52.260;20.746;2023-07-13T03:49:57;100027.20;;;19.10
69545;BMP180;56766;52.260;20.746;2023-07-13T03:52:24;100022.20;;;19.10
69545;BMP180;56766;52.260;20.746;2023-07-13T03:54:50;100028.00;;;19.16
69545;BMP180;56766;52.260;20.746;2023-07-13T03:57:18;100029.60;;;19.20
69545;BMP180;56766;52.260;20.746;2023-07-13T03:59:45;100028.60;;;19.30
69545;BMP180;56766;52.260;20.746;2023-07-13T04:02:12;100026.40;;;19.30
69545;BMP180;56766;52.260;20.746;2023-07-13T04:04:38;100025.60;;;19.38
69545;BMP180;56766;52.260;20.746;2023-07-13T04:07:07;100022.60;;;19.46
69545;BMP180;56766;52.260;20.746;2023-07-13T04:09:35;100031.60;;;19.60
69545;BMP180;56766;52.260;20.746;2023-07-13T04:12:03;100033.00;;;19.70
69545;BMP180;56766;52.260;20.746;2023-07-13T04:14:29;100031.40;;;19.80
69545;BMP180;56766;52.260;20.746;2023-07-13T04:16:56;100042.00;;;20.06
69545;BMP180;56766;52.260;20.746;2023-07-13T04:19:23;100052.40;;;20.38
69545;BMP180;56766;52.260;20.746;2023-07-13T04:21:50;100053.80;;;20.60
69545;BMP180;56766;52.260;20.746;2023-07-13T04:24:16;100059.80;;;20.80
69545;BMP180;56766;52.260;20.746;2023-07-13T04:26:43;100061.40;;;20.90
69545;BMP180;56766;52.260;20.746;2023-07-13T04:29:10;100067.00;;;21.04
69545;BMP180;56766;52.260;20.746;2023-07-13T04:31:37;100066.60;;;21.10
69545;BMP180;56766;52.260;20.746;2023-07-13T04:34:04;100068.40;;;21.20
69545;BMP180;56766;52.260;20.746;2023-07-13T04:36:30;100066.00;;;21.30
69545;BMP180;56766;52.260;20.746;2023-07-13T04:38:57;100064.20;;;21.40
69545;BMP180;56766;52.260;20.746;2023-07-13T04:41:24;100074.00;;;21.44
69545;BMP180;56766;52.260;20.746;2023-07-13T04:43:51;100080.00;;;21.40
69545;BMP180;56766;52.260;20.746;2023-07-13T04:46:18;100079.40;;;21.40
69545;BMP180;56766;52.260;20.746;2023-07-13T04:48:46;100076.80;;;21.40
69545;BMP180;56766;52.260;20.746;2023-07-13T04:51:13;100067.20;;;21.30
69545;BMP180;56766;52.260;20.746;2023-07-13T04:53:40;100075.60;;;21.30
69545;BMP180;56766;52.260;20.746;2023-07-13T04:56:06;100070.80;;;21.28
69545;BMP180;56766;52.260;20.746;2023-07-13T04:58:34;100071.40;;;21.20
69545;BMP180;56766;52.260;20.746;2023-07-13T05:01:03;100079.60;;;21.20
69545;BMP180;56766;52.260;20.746;2023-07-13T05:03:32;100078.40;;;21.20
69545;BMP180;56766;52.260;20.746;2023-07-13T05:06:04;100086.40;;;21.20
69545;BMP180;56766;52.260;20.746;2023-07-13T05:08:32;100099.20;;;21.24
69545;BMP180;56766;52.260;20.746;2023-07-13T05:11:01;100105.20;;;21.30
69545;BMP180;56766;52.260;20.746;2023-07-13T05:13:29;100108.20;;;21.32
69545;BMP180;56766;52.260;20.746;2023-07-13T05:16:02;100104.00;;;21.40
69545;BMP180;56766;52.260;20.746;2023-07-13T05:18:30;100105.80;;;21.40
69545;BMP180;56766;52.260;20.746;2023-07-13T05:21:05;100102.60;;;21.50
69545;BMP180;56766;52.260;20.746;2023-07-13T05:23:34;100113.40;;;21.60
69545;BMP180;56766;52.260;20.746;2023-07-13T05:26:03;100120.80;;;21.70
69545;BMP180;56766;52.260;20.746;2023-07-13T05:28:31;100125.80;;;21.80
69545;BMP180;56766;52.260;20.746;2023-07-13T05:30:58;100131.80;;;21.90
69545;BMP180;56766;52.260;20.746;2023-07-13T05:33:27;100138.60;;;22.00
69545;BMP180;56766;52.260;20.746;2023-07-13T05:35:55;100144.60;;;22.10
69545;BMP180;56766;52.260;20.746;2023-07-13T05:38:22;100146.60;;;22.18
69545;BMP180;56766;52.260;20.746;2023-07-13T05:40:50;100146.40;;;22.30
69545;BMP180;56766;52.260;20.746;2023-07-13T05:43:17;100141.00;;;22.40
69545;BMP180;56766;52.260;20.746;2023-07-13T05:45:44;100136.20;;;22.50
69545;BMP180;56766;52.260;20.746;2023-07-13T05:48:10;100129.40;;;22.60
69545;BMP180;56766;52.260;20.746;2023-07-13T05:50:37;100129.80;;;22.72
69545;BMP180;56766;52.260;20.746;2023-07-13T05:53:04;100130.80;;;22.90
69545;BMP180;56766;52.260;20.746;2023-07-13T05:55:31;100128.00;;;22.96
69545;BMP180;56766;52.260;20.746;2023-07-13T05:58:01;100129.00;;;23.08
69545;BMP180;56766;52.260;20.746;2023-07-13T06:00:27;100132.00;;;23.24
69545;BMP180;56766;52.260;20.746;2023-07-13T06:02:56;100130.00;;;23.40
69545;BMP180;56766;52.260;20.746;2023-07-13T06:05:23;100123.80;;;23.50
69545;BMP180;56766;52.260;20.746;2023-07-13T06:07:49;100116.40;;;23.62
69545;BMP180;56766;52.260;20.746;2023-07-13T06:10:16;100113.20;;;23.76
69545;BMP180;56766;52.260;20.746;2023-07-13T06:12:43;100107.20;;;23.80
69545;BMP180;56766;52.260;20.746;2023-07-13T06:15:10;100108.20;;;23.90
69545;BMP180;56766;52.260;20.746;2023-07-13T06:17:36;100105.60;;;24.00
69545;BMP180;56766;52.260;20.746;2023-07-13T06:20:04;100111.80;;;24.18
69545;BMP180;56766;52.260;20.746;2023-07-13T06:22:30;100113.60;;;24.58
69545;BMP180;56766;52.260;20.746;2023-07-13T06:24:57;100115.80;;;24.90
69545;BMP180;56766;52.260;20.746;2023-07-13T06:27:24;100120.20;;;25.20
69545;BMP180;56766;52.260;20.746;2023-07-13T06:29:51;100117.00;;;25.34
69545;BMP180;56766;52.260;20.746;2023-07-13T06:32:18;100111.40;;;25.40
69545;BMP180;56766;52.260;20.746;2023-07-13T06:34:44;100113.20;;;25.50
69545;BMP180;56766;52.260;20.746;2023-07-13T06:37:11;100113.80;;;25.60
69545;BMP180;56766;52.260;20.746;2023-07-13T06:39:38;100118.60;;;25.60
69545;BMP180;56766;52.260;20.746;2023-07-13T06:42:05;100110.80;;;25.66
69545;BMP180;56766;52.260;20.746;2023-07-13T06:44:32;100109.60;;;25.60
69545;BMP180;56766;52.260;20.746;2023-07-13T06:46:59;100102.40;;;25.70
69545;BMP180;56766;52.260;20.746;2023-07-13T06:49:25;100094.40;;;25.74
69545;BMP180;56766;52.260;20.746;2023-07-13T06:51:52;100094.40;;;25.80
69545;BMP180;56766;52.260;20.746;2023-07-13T06:54:19;100092.80;;;26.00
69545;BMP180;56766;52.260;20.746;2023-07-13T06:56:45;100097.80;;;26.08
69545;BMP180;56766;52.260;20.746;2023-07-13T06:59:12;100095.80;;;26.10
69545;BMP180;56766;52.260;20.746;2023-07-13T07:01:38;100096.60;;;26.02
69545;BMP180;56766;52.260;20.746;2023-07-13T07:04:05;100098.00;;;26.10
69545;BMP180;56766;52.260;20.746;2023-07-13T07:06:32;100090.20;;;26.00
69545;BMP180;56766;52.260;20.746;2023-07-13T07:08:58;100090.20;;;26.10
69545;BMP180;56766;52.260;20.746;2023-07-13T07:11:26;100087.20;;;26.20
69545;BMP180;56766;52.260;20.746;2023-07-13T07:13:53;100094.40;;;26.30
69545;BMP180;56766;52.260;20.746;2023-07-13T07:16:22;100098.00;;;26.40
69545;BMP180;56766;52.260;20.746;2023-07-13T07:18:48;100092.20;;;26.40
69545;BMP180;56766;52.260;20.746;2023-07-13T07:21:15;100092.80;;;26.50
69545;BMP180;56766;52.260;20.746;2023-07-13T07:23:43;100087.60;;;26.52
69545;BMP180;56766;52.260;20.746;2023-07-13T07:26:10;100085.60;;;26.64
69545;BMP180;56766;52.260;20.746;2023-07-13T07:28:38;100087.20;;;26.80
69545;BMP180;56766;52.260;20.746;2023-07-13T07:31:05;100082.80;;;26.90
69545;BMP180;56766;52.260;20.746;2023-07-13T07:33:33;100079.80;;;27.10
69545;BMP180;56766;52.260;20.746;2023-07-13T07:36:01;100088.80;;;27.20
69545;BMP180;56766;52.260;20.746;2023-07-13T07:38:28;100087.60;;;27.20
69545;BMP180;56766;52.260;20.746;2023-07-13T07:40:54;100091.20;;;27.28
69545;BMP180;56766;52.260;20.746;2023-07-13T07:43:21;100089.20;;;27.42
69545;BMP180;56766;52.260;20.746;2023-07-13T07:45:48;100089.80;;;27.66
69545;BMP180;56766;52.260;20.746;2023-07-13T07:48:14;100091.20;;;27.82
69545;BMP180;56766;52.260;20.746;2023-07-13T07:50:41;100084.00;;;28.00
69545;BMP180;56766;52.260;20.746;2023-07-13T07:53:09;100080.40;;;28.16
69545;BMP180;56766;52.260;20.746;2023-07-13T07:55:37;100085.20;;;28.20
69545;BMP180;56766;52.260;20.746;2023-07-13T07:58:05;100082.80;;;28.30
69545;BMP180;56766;52.260;20.746;2023-07-13T08:00:32;100079.00;;;28.40
69545;BMP180;56766;52.260;20.746;2023-07-13T08:02:59;100075.60;;;28.60
69545;BMP180;56766;52.260;20.746;2023-07-13T08:05:27;100079.20;;;28.70
69545;BMP180;56766;52.260;20.746;2023-07-13T08:07:53;100082.20;;;28.82
69545;BMP180;56766;52.260;20.746;2023-07-13T08:10:20;100077.40;;;29.00
69545;BMP180;56766;52.260;20.746;2023-07-13T08:12:47;100076.20;;;29.20
69545;BMP180;56766;52.260;20.746;2023-07-13T08:15:16;100069.60;;;29.32
69545;BMP180;56766;52.260;20.746;2023-07-13T08:17:43;100075.20;;;29.50
69545;BMP180;56766;52.260;20.746;2023-07-13T08:20:10;100077.40;;;29.70
69545;BMP180;56766;52.260;20.746;2023-07-13T08:22:37;100078.80;;;29.88
69545;BMP180;56766;52.260;20.746;2023-07-13T08:25:04;100082.00;;;30.10
69545;BMP180;56766;52.260;20.746;2023-07-13T08:27:32;100082.00;;;30.30
69545;BMP180;56766;52.260;20.746;2023-07-13T08:29:59;100087.20;;;30.50
69545;BMP180;56766;52.260;20.746;2023-07-13T08:32:26;100088.80;;;30.70
69545;BMP180;56766;52.260;20.746;2023-07-13T08:34:52;100084.00;;;30.90
69545;BMP180;56766;52.260;20.746;2023-07-13T08:37:19;100090.60;;;31.20
69545;BMP180;56766;52.260;20.746;2023-07-13T08:39:46;100088.80;;;31.40
69545;BMP180;56766;52.260;20.746;2023-07-13T08:42:37;100086.20;;;31.40
69545;BMP180;56766;52.260;20.746;2023-07-13T08:45:37;100093.60;;;31.40
69545;BMP180;56766;52.260;20.746;2023-07-13T08:48:19;100097.80;;;31.40
69545;BMP180;56766;52.260;20.746;2023-07-13T08:56:52;100109.20;;;31.24
69545;BMP180;56766;52.260;20.746;2023-07-13T08:59:27;100111.00;;;30.80
69545;BMP180;56766;52.260;20.746;2023-07-13T09:05:13;100113.00;;;30.98
69545;BMP180;56766;52.260;20.746;2023-07-13T09:10:49;100115.40;;;31.62
69545;BMP180;56766;52.260;20.746;2023-07-13T09:16:25;100106.60;;;32.50
69545;BMP180;56766;52.260;20.746;2023-07-13T09:19:01;100102.80;;;32.70
69545;BMP180;56766;52.260;20.746;2023-07-13T09:21:39;100101.60;;;32.50
69545;BMP180;56766;52.260;20.746;2023-07-13T09:24:36;100105.00;;;32.70
69545;BMP180;56766;52.260;20.746;2023-07-13T09:27:18;100101.60;;;32.96
69545;BMP180;56766;52.260;20.746;2023-07-13T09:30:02;100105.00;;;33.20
69545;BMP180;56766;52.260;20.746;2023-07-13T09:32:32;100108.60;;;33.40
69545;BMP180;56766;52.260;20.746;2023-07-13T09:34:59;100104.20;;;33.18
69545;BMP180;56766;52.260;20.746;2023-07-13T09:37:31;100097.80;;;32.36
69545;BMP180;56766;52.260;20.746;2023-07-13T09:40:02;100082.40;;;31.18
69545;BMP180;56766;52.260;20.746;2023-07-13T09:42:33;100081.20;;;30.26
69545;BMP180;56766;52.260;20.746;2023-07-13T09:45:02;100069.80;;;29.62
69545;BMP180;56766;52.260;20.746;2023-07-13T09:47:32;100072.80;;;28.86
69545;BMP180;56766;52.260;20.746;2023-07-13T09:50:03;100075.20;;;28.02
69545;BMP180;56766;52.260;20.746;2023-07-13T09:52:45;100081.60;;;27.52
69545;BMP180;56766;52.260;20.746;2023-07-13T09:55:38;100080.80;;;27.08
69545;BMP180;56766;52.260;20.746;2023-07-13T10:00:54;100078.60;;;26.20
69545;BMP180;56766;52.260;20.746;2023-07-13T10:03:27;100078.20;;;25.80
69545;BMP180;56766;52.260;20.746;2023-07-13T10:06:03;100080.20;;;25.40
69545;BMP180;56766;52.260;20.746;2023-07-13T10:08:35;100094.40;;;24.96
69545;BMP180;56766;52.260;20.746;2023-07-13T10:11:18;100106.60;;;24.60
69545;BMP180;56766;52.260;20.746;2023-07-13T10:16:32;100130.60;;;23.82
69545;BMP180;56766;52.260;20.746;2023-07-13T10:19:11;100136.80;;;23.46
69545;BMP180;56766;52.260;20.746;2023-07-13T10:21:56;100144.40;;;22.98
69545;BMP180;56766;52.260;20.746;2023-07-13T10:24:29;100146.60;;;22.60
69545;BMP180;56766;52.260;20.746;2023-07-13T10:27:20;100149.60;;;22.28
69545;BMP180;56766;52.260;20.746;2023-07-13T10:30:23;100177.00;;;22.06
69545;BMP180;56766;52.260;20.746;2023-07-13T10:32:52;100206.00;;;21.54
69545;BMP180;56766;52.260;20.746;2023-07-13T10:35:22;100213.00;;;21.00
69545;BMP180;56766;52.260;20.746;2023-07-13T10:38:03;100201.00;;;20.62
69545;BMP180;56766;52.260;20.746;2023-07-13T10:40:59;100203.60;;;20.20
69545;BMP180;56766;52.260;20.746;2023-07-13T10:43:44;100211.40;;;19.90
69545;BMP180;56766;52.260;20.746;2023-07-13T10:46:16;100190.60;;;19.50
69545;BMP180;56766;52.260;20.746;2023-07-13T10:48:49;100181.20;;;19.20
69545;BMP180;56766;52.260;20.746;2023-07-13T10:51:20;100179.20;;;18.84
69545;BMP180;56766;52.260;20.746;2023-07-13T10:54:28;100180.80;;;18.60
69545;BMP180;56766;52.260;20.746;2023-07-13T10:57:18;100175.40;;;18.40
69545;BMP180;56766;52.260;20.746;2023-07-13T11:00:17;100175.00;;;18.20
69545;BMP180;56766;52.260;20.746;2023-07-13T11:02:58;100194.20;;;18.12
69545;BMP180;56766;52.260;20.746;2023-07-13T11:05:33;100220.40;;;18.10
69545;BMP180;56766;52.260;20.746;2023-07-13T11:08:21;100228.80;;;17.96
69545;BMP180;56766;52.260;20.746;2023-07-13T11:10:59;100239.00;;;17.70
69545;BMP180;56766;52.260;20.746;2023-07-13T11:16:43;100244.40;;;17.46
69545;BMP180;56766;52.260;20.746;2023-07-13T11:25:02;100246.80;;;17.30
69545;BMP180;56766;52.260;20.746;2023-07-13T11:27:51;100250.20;;;17.30
69545;BMP180;56766;52.260;20.746;2023-07-13T11:30:32;100266.80;;;17.30
69545;BMP180;56766;52.260;20.746;2023-07-13T11:36:19;100259.80;;;17.50
69545;BMP180;56766;52.260;20.746;2023-07-13T11:39:10;100265.60;;;17.58
69545;BMP180;56766;52.260;20.746;2023-07-13T11:41:55;100261.00;;;17.70
69545;BMP180;56766;52.260;20.746;2023-07-13T11:44:27;100264.40;;;17.80
69545;BMP180;56766;52.260;20.746;2023-07-13T11:47:08;100265.80;;;17.90
69545;BMP180;56766;52.260;20.746;2023-07-13T11:49:45;100266.40;;;18.00
69545;BMP180;56766;52.260;20.746;2023-07-13T11:52:21;100261.60;;;18.14
69545;BMP180;56766;52.260;20.746;2023-07-13T11:54:51;100252.20;;;18.28
69545;BMP180;56766;52.260;20.746;2023-07-13T11:57:30;100243.20;;;18.40
69545;BMP180;56766;52.260;20.746;2023-07-13T12:00:17;100229.80;;;18.48
69545;BMP180;56766;52.260;20.746;2023-07-13T12:02:49;100226.60;;;18.60
69545;BMP180;56766;52.260;20.746;2023-07-13T12:05:19;100217.20;;;18.70
69545;BMP180;56766;52.260;20.746;2023-07-13T12:07:50;100212.20;;;18.80
69545;BMP180;56766;52.260;20.746;2023-07-13T12:10:26;100209.00;;;18.94
69545;BMP180;56766;52.260;20.746;2023-07-13T12:13:04;100208.40;;;19.00
69545;BMP180;56766;52.260;20.746;2023-07-13T12:15:43;100201.00;;;19.02
69545;BMP180;56766;52.260;20.746;2023-07-13T12:18:19;100195.80;;;19.02
69545;BMP180;56766;52.260;20.746;2023-07-13T12:20:49;100196.20;;;19.00
69545;BMP180;56766;52.260;20.746;2023-07-13T12:23:31;100206.60;;;19.00
69545;BMP180;56766;52.260;20.746;2023-07-13T12:26:03;100206.00;;;18.90
69545;BMP180;56766;52.260;20.746;2023-07-13T12:31:22;100214.60;;;18.90
69545;BMP180;56766;52.260;20.746;2023-07-13T12:34:00;100214.40;;;18.90
69545;BMP180;56766;52.260;20.746;2023-07-13T12:36:32;100216.80;;;19.00
69545;BMP180;56766;52.260;20.746;2023-07-13T12:39:12;100215.80;;;19.04
69545;BMP180;56766;52.260;20.746;2023-07-13T12:41:40;100211.40;;;19.10
69545;BMP180;56766;52.260;20.746;2023-07-13T12:44:14;100213.20;;;19.20
69545;BMP180;56766;52.260;20.746;2023-07-13T12:46:56;100214.60;;;19.30
69545;BMP180;56766;52.260;20.746;2023-07-13T12:49:30;100213.60;;;19.40
69545;BMP180;56766;52.260;20.746;2023-07-13T12:52:03;100219.40;;;19.50
69545;BMP180;56766;52.260;20.746;2023-07-13T12:54:31;100218.40;;;19.50
69545;BMP180;56766;52.260;20.746;2023-07-13T12:56:59;100215.80;;;19.46
69545;BMP180;56766;52.260;20.746;2023-07-13T12:59:32;100217.80;;;19.40
69545;BMP180;56766;52.260;20.746;2023-07-13T13:02:00;100210.20;;;19.36
69545;BMP180;56766;52.260;20.746;2023-07-13T13:04:27;100221.80;;;19.30
69545;BMP180;56766;52.260;20.746;2023-07-13T13:07:05;100224.00;;;19.30
69545;BMP180;56766;52.260;20.746;2023-07-13T13:09:35;100228.40;;;19.40
69545;BMP180;56766;52.260;20.746;2023-07-13T13:12:02;100229.20;;;19.42
69545;BMP180;56766;52.260;20.746;2023-07-13T13:14:29;100227.00;;;19.50
69545;BMP180;56766;52.260;20.746;2023-07-13T13:16:56;100227.00;;;19.60
69545;BMP180;56766;52.260;20.746;2023-07-13T13:19:28;100228.80;;;19.70
69545;BMP180;56766;52.260;20.746;2023-07-13T13:21:56;100225.80;;;19.70
69545;BMP180;56766;52.260;20.746;2023-07-13T13:24:28;100222.80;;;19.72
69545;BMP180;56766;52.260;20.746;2023-07-13T13:26:55;100226.20;;;19.80
69545;BMP180;56766;52.260;20.746;2023-07-13T13:29:26;100221.60;;;19.90
69545;BMP180;56766;52.260;20.746;2023-07-13T13:31:54;100225.80;;;19.90
69545;BMP180;56766;52.260;20.746;2023-07-13T13:34:24;100224.40;;;20.00
69545;BMP180;56766;52.260;20.746;2023-07-13T13:36:53;100225.20;;;20.00
69545;BMP180;56766;52.260;20.746;2023-07-13T13:39:24;100229.60;;;19.98
69545;BMP180;56766;52.260;20.746;2023-07-13T13:41:53;100227.80;;;20.00
69545;BMP180;56766;52.260;20.746;2023-07-13T13:44:22;100226.80;;;20.08
69545;BMP180;56766;52.260;20.746;2023-07-13T13:46:54;100226.60;;;20.10
69545;BMP180;56766;52.260;20.746;2023-07-13T13:49:26;100225.20;;;20.20
69545;BMP180;56766;52.260;20.746;2023-07-13T13:51:54;100240.60;;;20.30
69545;BMP180;56766;52.260;20.746;2023-07-13T13:54:24;100239.60;;;20.38
69545;BMP180;56766;52.260;20.746;2023-07-13T13:56:53;100243.20;;;20.40
69545;BMP180;56766;52.260;20.746;2023-07-13T13:59:19;100246.20;;;20.42
69545;BMP180;56766;52.260;20.746;2023-07-13T14:01:48;100238.40;;;20.50
69545;BMP180;56766;52.260;20.746;2023-07-13T14:04:22;100243.40;;;20.60
69545;BMP180;56766;52.260;20.746;2023-07-13T14:06:49;100239.80;;;20.70
69545;BMP180;56766;52.260;20.746;2023-07-13T14:09:19;100228.00;;;20.80
69545;BMP180;56766;52.260;20.746;2023-07-13T14:11:49;100233.40;;;20.90
69545;BMP180;56766;52.260;20.746;2023-07-13T14:14:24;100237.20;;;21.00
69545;BMP180;56766;52.260;20.746;2023-07-13T14:16:54;100233.20;;;21.00
69545;BMP180;56766;52.260;20.746;2023-07-13T14:19:23;100219.80;;;21.00
69545;BMP180;56766;52.260;20.746;2023-07-13T14:21:50;100221.80;;;21.00
69545;BMP180;56766;52.260;20.746;2023-07-13T14:24:19;100223.40;;;21.02
69545;BMP180;56766;52.260;20.746;2023-07-13T14:26:46;100221.60;;;21.00
69545;BMP180;56766;52.260;20.746;2023-07-13T14:29:18;100220.80;;;21.06
69545;BMP180;56766;52.260;20.746;2023-07-13T14:31:45;100228.60;;;21.08
69545;BMP180;56766;52.260;20.746;2023-07-13T14:34:13;100232.60;;;21.00
69545;BMP180;56766;52.260;20.746;2023-07-13T14:36:48;100237.20;;;21.00
69545;BMP180;56766;52.260;20.746;2023-07-13T14:39:23;100236.40;;;21.00